sensor_id;sensor_type;location;lat;lon;timestamp;P1;durP1;ratioP1;P2;durP2;ratioP2
40729;SDS011;26418;50.070;8.436;2024-01-10T00:00:37;20.23;;;8.63;;
40729;SDS011;26418;50.070;8.436;2024-01-10T00:03:03;21.20;;;9.23;;
40729;SDS011;26418;50.070;8.436;2024-01-10T00:05:28;19.35;;;8.35;;
40729;SDS011;26418;50.070;8.436;2024-01-10T00:07:54;23.23;;;8.38;;
40729;SDS011;26418;50.070;8.436;2024-01-10T00:10:20;22.92;;;9.32;;
40729;SDS011;26418;50.070;8.436;2024-01-10T00:12:47;23.35;;;8.88;;
40729;SDS011;26418;50.070;8.436;2024-01-10T00:15:12;24.35;;;9.52;;
40729;SDS011;26418;50.070;8.436;2024-01-10T00:17:39;21.42;;;9.77;;
40729;SDS011;26418;50.070;8.436;2024-01-10T00:20:06;22.65;;;10.05;;
40729;SDS011;26418;50.070;8.436;2024-01-10T00:22:32;22.17;;;9.05;;
40729;SDS011;26418;50.070;8.436;2024-01-10T00:24:58;21.00;;;9.68;;
40729;SDS011;26418;50.070;8.436;2024-01-10T00:27:24;23.90;;;10.32;;
40729;SDS011;26418;50.070;8.436;2024-01-10T00:29:49;25.67;;;10.20;;
40729;SDS011;26418;50.070;8.436;2024-01-10T00:32:16;27.75;;;10.77;;
40729;SDS011;26418;50.070;8.436;2024-01-10T00:34:42;20.70;;;9.65;;
40729;SDS011;26418;50.070;8.436;2024-01-10T00:37:08;28.35;;;10.77;;
40729;SDS011;26418;50.070;8.436;2024-01-10T00:39:33;24.95;;;9.85;;
40729;SDS011;26418;50.070;8.436;2024-01-10T00:41:59;27.25;;;10.65;;
40729;SDS011;26418;50.070;8.436;2024-01-10T00:44:24;27.63;;;11.55;;
40729;SDS011;26418;50.070;8.436;2024-01-10T00:46:50;27.95;;;11.88;;
40729;SDS011;26418;50.070;8.436;2024-01-10T00:49:15;29.65;;;11.35;;
40729;SDS011;26418;50.070;8.436;2024-01-10T00:51:41;24.67;;;10.75;;
40729;SDS011;26418;50.070;8.436;2024-01-10T00:54:06;29.20;;;11.43;;
40729;SDS011;26418;50.070;8.436;2024-01-10T00:56:32;27.30;;;11.20;;
40729;SDS011;26418;50.070;8.436;2024-01-10T00:58:57;24.65;;;11.43;;
40729;SDS011;26418;50.070;8.436;2024-01-10T01:01:23;34.40;;;13.07;;
40729;SDS011;26418;50.070;8.436;2024-01-10T01:03:49;34.33;;;13.77;;
40729;SDS011;26418;50.070;8.436;2024-01-10T01:06:15;28.15;;;12.80;;
40729;SDS011;26418;50.070;8.436;2024-01-10T01:08:41;25.48;;;11.90;;
40729;SDS011;26418;50.070;8.436;2024-01-10T01:11:07;37.72;;;14.00;;
40729;SDS011;26418;50.070;8.436;2024-01-10T01:13:32;35.25;;;12.55;;
40729;SDS011;26418;50.070;8.436;2024-01-10T01:15:58;32.83;;;12.57;;
40729;SDS011;26418;50.070;8.436;2024-01-10T01:18:23;30.15;;;11.75;;
40729;SDS011;26418;50.070;8.436;2024-01-10T01:20:49;32.83;;;12.98;;
40729;SDS011;26418;50.070;8.436;2024-01-10T01:23:15;25.88;;;11.68;;
40729;SDS011;26418;50.070;8.436;2024-01-10T01:25:41;30.83;;;12.52;;
40729;SDS011;26418;50.070;8.436;2024-01-10T01:28:07;35.17;;;13.63;;
40729;SDS011;26418;50.070;8.436;2024-01-10T01:30:33;31.83;;;13.20;;
40729;SDS011;26418;50.070;8.436;2024-01-10T01:32:59;31.17;;;13.07;;
40729;SDS011;26418;50.070;8.436;2024-01-10T01:35:25;29.70;;;12.27;;
40729;SDS011;26418;50.070;8.436;2024-01-10T01:37:50;27.73;;;11.63;;
40729;SDS011;26418;50.070;8.436;2024-01-10T01:40:17;28.95;;;12.57;;
40729;SDS011;26418;50.070;8.436;2024-01-10T01:42:47;34.22;;;14.02;;
40729;SDS011;26418;50.070;8.436;2024-01-10T01:45:13;30.63;;;11.57;;
40729;SDS011;26418;50.070;8.436;2024-01-10T01:47:39;27.80;;;12.25;;
40729;SDS011;26418;50.070;8.436;2024-01-10T01:50:06;31.83;;;13.32;;
40729;SDS011;26418;50.070;8.436;2024-01-10T01:52:32;28.75;;;12.02;;
40729;SDS011;26418;50.070;8.436;2024-01-10T01:54:59;34.42;;;14.05;;
40729;SDS011;26418;50.070;8.436;2024-01-10T01:57:26;32.53;;;13.63;;
40729;SDS011;26418;50.070;8.436;2024-01-10T01:59:51;33.20;;;13.18;;
40729;SDS011;26418;50.070;8.436;2024-01-10T02:02:17;36.72;;;13.48;;
40729;SDS011;26418;50.070;8.436;2024-01-10T02:04:43;30.45;;;12.85;;
40729;SDS011;26418;50.070;8.436;2024-01-10T02:07:11;39.63;;;14.95;;
40729;SDS011;26418;50.070;8.436;2024-01-10T02:09:37;34.15;;;13.93;;
40729;SDS011;26418;50.070;8.436;2024-01-10T02:12:03;30.60;;;14.00;;
40729;SDS011;26418;50.070;8.436;2024-01-10T02:14:29;35.70;;;13.77;;
40729;SDS011;26418;50.070;8.436;2024-01-10T02:16:55;38.20;;;15.20;;
40729;SDS011;26418;50.070;8.436;2024-01-10T02:19:21;30.73;;;14.02;;
40729;SDS011;26418;50.070;8.436;2024-01-10T02:21:48;32.28;;;13.00;;
40729;SDS011;26418;50.070;8.436;2024-01-10T02:24:14;38.75;;;14.48;;
40729;SDS011;26418;50.070;8.436;2024-01-10T02:26:40;37.50;;;14.13;;
40729;SDS011;26418;50.070;8.436;2024-01-10T02:29:05;34.92;;;14.75;;
40729;SDS011;26418;50.070;8.436;2024-01-10T02:31:31;35.78;;;14.77;;
40729;SDS011;26418;50.070;8.436;2024-01-10T02:33:56;33.53;;;14.55;;
40729;SDS011;26418;50.070;8.436;2024-01-10T02:36:22;35.22;;;14.50;;
40729;SDS011;26418;50.070;8.436;2024-01-10T02:38:47;34.97;;;14.00;;
40729;SDS011;26418;50.070;8.436;2024-01-10T02:41:13;36.50;;;14.20;;
40729;SDS011;26418;50.070;8.436;2024-01-10T02:43:40;32.72;;;13.95;;
40729;SDS011;26418;50.070;8.436;2024-01-10T02:46:05;36.55;;;14.40;;
40729;SDS011;26418;50.070;8.436;2024-01-10T02:48:30;32.67;;;12.73;;
40729;SDS011;26418;50.070;8.436;2024-01-10T02:50:56;38.30;;;14.00;;
40729;SDS011;26418;50.070;8.436;2024-01-10T02:53:21;36.50;;;15.55;;
40729;SDS011;26418;50.070;8.436;2024-01-10T02:55:47;39.15;;;14.30;;
40729;SDS011;26418;50.070;8.436;2024-01-10T02:58:14;36.70;;;14.68;;
40729;SDS011;26418;50.070;8.436;2024-01-10T03:00:39;36.38;;;14.13;;
40729;SDS011;26418;50.070;8.436;2024-01-10T03:03:05;33.67;;;13.93;;
40729;SDS011;26418;50.070;8.436;2024-01-10T03:05:31;36.22;;;14.82;;
40729;SDS011;26418;50.070;8.436;2024-01-10T03:07:56;35.72;;;14.18;;
40729;SDS011;26418;50.070;8.436;2024-01-10T03:10:22;39.72;;;14.98;;
40729;SDS011;26418;50.070;8.436;2024-01-10T03:12:47;39.28;;;15.10;;
40729;SDS011;26418;50.070;8.436;2024-01-10T03:15:13;32.72;;;13.20;;
40729;SDS011;26418;50.070;8.436;2024-01-10T03:17:39;33.80;;;15.00;;
40729;SDS011;26418;50.070;8.436;2024-01-10T03:20:04;34.75;;;14.77;;
40729;SDS011;26418;50.070;8.436;2024-01-10T03:22:31;32.88;;;14.23;;
40729;SDS011;26418;50.070;8.436;2024-01-10T03:24:57;38.67;;;14.93;;
40729;SDS011;26418;50.070;8.436;2024-01-10T03:27:23;36.00;;;14.88;;
40729;SDS011;26418;50.070;8.436;2024-01-10T03:29:48;41.30;;;14.88;;
40729;SDS011;26418;50.070;8.436;2024-01-10T03:32:14;36.97;;;14.27;;
40729;SDS011;26418;50.070;8.436;2024-01-10T03:34:41;39.25;;;14.43;;
40729;SDS011;26418;50.070;8.436;2024-01-10T03:37:06;35.13;;;14.95;;
40729;SDS011;26418;50.070;8.436;2024-01-10T03:39:32;34.28;;;14.48;;
40729;SDS011;26418;50.070;8.436;2024-01-10T03:41:57;35.83;;;14.35;;
40729;SDS011;26418;50.070;8.436;2024-01-10T03:44:23;37.58;;;14.10;;
40729;SDS011;26418;50.070;8.436;2024-01-10T03:46:49;38.45;;;14.38;;
40729;SDS011;26418;50.070;8.436;2024-01-10T03:49:14;37.65;;;13.93;;
40729;SDS011;26418;50.070;8.436;2024-01-10T03:51:40;32.85;;;13.82;;
40729;SDS011;26418;50.070;8.436;2024-01-10T03:54:06;37.78;;;14.15;;
40729;SDS011;26418;50.070;8.436;2024-01-10T03:56:32;37.10;;;15.30;;
40729;SDS011;26418;50.070;8.436;2024-01-10T03:58:57;40.60;;;14.50;;
40729;SDS011;26418;50.070;8.436;2024-01-10T04:01:24;34.17;;;14.50;;
40729;SDS011;26418;50.070;8.436;2024-01-10T04:03:49;36.60;;;14.43;;
40729;SDS011;26418;50.070;8.436;2024-01-10T04:06:15;36.35;;;14.52;;
40729;SDS011;26418;50.070;8.436;2024-01-10T04:08:40;36.13;;;14.07;;
40729;SDS011;26418;50.070;8.436;2024-01-10T04:11:06;36.13;;;15.50;;
40729;SDS011;26418;50.070;8.436;2024-01-10T04:13:31;35.15;;;13.50;;
40729;SDS011;26418;50.070;8.436;2024-01-10T04:15:57;34.03;;;14.90;;
40729;SDS011;26418;50.070;8.436;2024-01-10T04:18:22;34.85;;;15.40;;
40729;SDS011;26418;50.070;8.436;2024-01-10T04:20:49;36.58;;;14.57;;
40729;SDS011;26418;50.070;8.436;2024-01-10T04:23:14;35.53;;;13.98;;
40729;SDS011;26418;50.070;8.436;2024-01-10T04:25:40;43.20;;;15.85;;
40729;SDS011;26418;50.070;8.436;2024-01-10T04:28:05;32.97;;;14.45;;
40729;SDS011;26418;50.070;8.436;2024-01-10T04:30:31;33.72;;;13.98;;
40729;SDS011;26418;50.070;8.436;2024-01-10T04:32:57;37.95;;;14.57;;
40729;SDS011;26418;50.070;8.436;2024-01-10T04:35:23;36.97;;;13.73;;
40729;SDS011;26418;50.070;8.436;2024-01-10T04:37:48;33.22;;;12.88;;
40729;SDS011;26418;50.070;8.436;2024-01-10T04:40:14;34.78;;;13.38;;
40729;SDS011;26418;50.070;8.436;2024-01-10T04:42:39;39.00;;;15.48;;
40729;SDS011;26418;50.070;8.436;2024-01-10T04:45:05;40.78;;;14.57;;
40729;SDS011;26418;50.070;8.436;2024-01-10T04:47:32;39.70;;;14.93;;
40729;SDS011;26418;50.070;8.436;2024-01-10T04:49:58;38.50;;;14.38;;
40729;SDS011;26418;50.070;8.436;2024-01-10T04:52:23;32.33;;;13.25;;
40729;SDS011;26418;50.070;8.436;2024-01-10T04:54:49;35.97;;;13.85;;
40729;SDS011;26418;50.070;8.436;2024-01-10T04:57:15;35.20;;;13.82;;
40729;SDS011;26418;50.070;8.436;2024-01-10T04:59:41;36.97;;;14.10;;
40729;SDS011;26418;50.070;8.436;2024-01-10T05:02:06;33.60;;;13.48;;
40729;SDS011;26418;50.070;8.436;2024-01-10T05:04:32;37.50;;;13.93;;
40729;SDS011;26418;50.070;8.436;2024-01-10T05:06:58;37.25;;;13.65;;
40729;SDS011;26418;50.070;8.436;2024-01-10T05:09:23;38.53;;;13.98;;
40729;SDS011;26418;50.070;8.436;2024-01-10T05:11:49;29.95;;;13.15;;
40729;SDS011;26418;50.070;8.436;2024-01-10T05:14:16;30.08;;;11.73;;
40729;SDS011;26418;50.070;8.436;2024-01-10T05:16:44;32.47;;;13.23;;
40729;SDS011;26418;50.070;8.436;2024-01-10T05:19:10;30.52;;;12.02;;
40729;SDS011;26418;50.070;8.436;2024-01-10T05:21:36;32.50;;;12.98;;
40729;SDS011;26418;50.070;8.436;2024-01-10T05:24:02;34.40;;;13.77;;
40729;SDS011;26418;50.070;8.436;2024-01-10T05:26:28;30.05;;;13.02;;
40729;SDS011;26418;50.070;8.436;2024-01-10T05:28:54;33.47;;;13.55;;
40729;SDS011;26418;50.070;8.436;2024-01-10T05:31:19;33.13;;;13.30;;
40729;SDS011;26418;50.070;8.436;2024-01-10T05:33:45;28.60;;;12.15;;
40729;SDS011;26418;50.070;8.436;2024-01-10T05:36:11;33.05;;;13.05;;
40729;SDS011;26418;50.070;8.436;2024-01-10T05:38:37;33.08;;;13.35;;
40729;SDS011;26418;50.070;8.436;2024-01-10T05:41:02;38.17;;;14.98;;
40729;SDS011;26418;50.070;8.436;2024-01-10T05:43:28;33.33;;;14.23;;
40729;SDS011;26418;50.070;8.436;2024-01-10T05:45:54;34.42;;;13.63;;
40729;SDS011;26418;50.070;8.436;2024-01-10T05:48:19;31.65;;;13.60;;
40729;SDS011;26418;50.070;8.436;2024-01-10T05:50:45;34.28;;;13.45;;
40729;SDS011;26418;50.070;8.436;2024-01-10T05:53:10;36.78;;;14.57;;
40729;SDS011;26418;50.070;8.436;2024-01-10T05:55:37;34.60;;;14.90;;
40729;SDS011;26418;50.070;8.436;2024-01-10T05:58:03;40.15;;;15.02;;
40729;SDS011;26418;50.070;8.436;2024-01-10T06:00:29;41.03;;;13.88;;
40729;SDS011;26418;50.070;8.436;2024-01-10T06:02:54;43.33;;;15.45;;
40729;SDS011;26418;50.070;8.436;2024-01-10T06:05:20;37.47;;;14.73;;
40729;SDS011;26418;50.070;8.436;2024-01-10T06:07:45;33.75;;;13.27;;
40729;SDS011;26418;50.070;8.436;2024-01-10T06:10:11;37.80;;;15.32;;
40729;SDS011;26418;50.070;8.436;2024-01-10T06:12:36;37.03;;;14.30;;
40729;SDS011;26418;50.070;8.436;2024-01-10T06:15:03;35.10;;;14.23;;
40729;SDS011;26418;50.070;8.436;2024-01-10T06:17:29;35.85;;;14.55;;
40729;SDS011;26418;50.070;8.436;2024-01-10T06:19:56;36.88;;;14.65;;
40729;SDS011;26418;50.070;8.436;2024-01-10T06:22:24;35.03;;;15.10;;
40729;SDS011;26418;50.070;8.436;2024-01-10T06:24:50;38.10;;;14.55;;
40729;SDS011;26418;50.070;8.436;2024-01-10T06:27:16;35.05;;;13.40;;
40729;SDS011;26418;50.070;8.436;2024-01-10T06:29:43;36.90;;;14.98;;
40729;SDS011;26418;50.070;8.436;2024-01-10T06:32:10;35.88;;;14.63;;
40729;SDS011;26418;50.070;8.436;2024-01-10T06:34:36;40.08;;;14.48;;
40729;SDS011;26418;50.070;8.436;2024-01-10T06:37:02;36.95;;;14.98;;
40729;SDS011;26418;50.070;8.436;2024-01-10T06:39:28;28.75;;;13.75;;
40729;SDS011;26418;50.070;8.436;2024-01-10T06:41:53;41.90;;;14.15;;
40729;SDS011;26418;50.070;8.436;2024-01-10T06:44:20;35.05;;;14.57;;
40729;SDS011;26418;50.070;8.436;2024-01-10T06:46:45;41.58;;;14.77;;
40729;SDS011;26418;50.070;8.436;2024-01-10T06:49:11;36.33;;;15.45;;
40729;SDS011;26418;50.070;8.436;2024-01-10T06:51:37;37.85;;;13.88;;
40729;SDS011;26418;50.070;8.436;2024-01-10T06:54:03;39.42;;;14.60;;
40729;SDS011;26418;50.070;8.436;2024-01-10T06:56:29;37.42;;;14.25;;
40729;SDS011;26418;50.070;8.436;2024-01-10T06:58:56;35.75;;;14.70;;
40729;SDS011;26418;50.070;8.436;2024-01-10T07:01:22;40.83;;;15.15;;
40729;SDS011;26418;50.070;8.436;2024-01-10T07:03:47;38.78;;;14.85;;
40729;SDS011;26418;50.070;8.436;2024-01-10T07:06:13;35.05;;;14.38;;
40729;SDS011;26418;50.070;8.436;2024-01-10T07:08:42;36.85;;;15.13;;
40729;SDS011;26418;50.070;8.436;2024-01-10T07:11:09;39.58;;;15.60;;
40729;SDS011;26418;50.070;8.436;2024-01-10T07:13:36;37.85;;;15.80;;
40729;SDS011;26418;50.070;8.436;2024-01-10T07:16:02;35.30;;;16.05;;
40729;SDS011;26418;50.070;8.436;2024-01-10T07:18:28;35.47;;;15.15;;
40729;SDS011;26418;50.070;8.436;2024-01-10T07:20:53;37.15;;;14.75;;
40729;SDS011;26418;50.070;8.436;2024-01-10T07:23:19;33.50;;;14.38;;
40729;SDS011;26418;50.070;8.436;2024-01-10T07:25:45;42.92;;;15.95;;
40729;SDS011;26418;50.070;8.436;2024-01-10T07:28:10;41.13;;;16.23;;
40729;SDS011;26418;50.070;8.436;2024-01-10T07:30:36;41.10;;;15.23;;
40729;SDS011;26418;50.070;8.436;2024-01-10T07:33:02;39.20;;;14.93;;
40729;SDS011;26418;50.070;8.436;2024-01-10T07:35:27;39.38;;;14.98;;
40729;SDS011;26418;50.070;8.436;2024-01-10T07:37:54;31.65;;;14.02;;
40729;SDS011;26418;50.070;8.436;2024-01-10T07:40:20;38.28;;;14.95;;
40729;SDS011;26418;50.070;8.436;2024-01-10T07:42:45;34.92;;;15.05;;
40729;SDS011;26418;50.070;8.436;2024-01-10T07:45:11;33.38;;;15.77;;
40729;SDS011;26418;50.070;8.436;2024-01-10T07:47:37;42.50;;;16.70;;
40729;SDS011;26418;50.070;8.436;2024-01-10T07:50:06;40.08;;;15.68;;
40729;SDS011;26418;50.070;8.436;2024-01-10T07:52:33;38.90;;;15.07;;
40729;SDS011;26418;50.070;8.436;2024-01-10T07:54:59;42.28;;;17.08;;
40729;SDS011;26418;50.070;8.436;2024-01-10T07:57:25;41.25;;;16.17;;
40729;SDS011;26418;50.070;8.436;2024-01-10T07:59:50;42.30;;;16.50;;
40729;SDS011;26418;50.070;8.436;2024-01-10T08:02:16;41.47;;;15.63;;
40729;SDS011;26418;50.070;8.436;2024-01-10T08:04:41;42.08;;;16.00;;
40729;SDS011;26418;50.070;8.436;2024-01-10T08:07:07;41.95;;;17.33;;
40729;SDS011;26418;50.070;8.436;2024-01-10T08:09:33;40.60;;;16.48;;
40729;SDS011;26418;50.070;8.436;2024-01-10T08:11:59;43.33;;;17.38;;
40729;SDS011;26418;50.070;8.436;2024-01-10T08:14:24;42.35;;;16.38;;
40729;SDS011;26418;50.070;8.436;2024-01-10T08:16:50;34.70;;;16.17;;
40729;SDS011;26418;50.070;8.436;2024-01-10T08:19:18;39.65;;;15.98;;
40729;SDS011;26418;50.070;8.436;2024-01-10T08:21:44;40.10;;;16.85;;
40729;SDS011;26418;50.070;8.436;2024-01-10T08:24:09;36.30;;;14.52;;
40729;SDS011;26418;50.070;8.436;2024-01-10T08:26:35;39.50;;;16.60;;
40729;SDS011;26418;50.070;8.436;2024-01-10T08:29:00;41.67;;;16.30;;
40729;SDS011;26418;50.070;8.436;2024-01-10T08:31:26;40.20;;;15.00;;
40729;SDS011;26418;50.070;8.436;2024-01-10T08:33:52;34.72;;;13.23;;
40729;SDS011;26418;50.070;8.436;2024-01-10T08:36:18;35.10;;;14.30;;
40729;SDS011;26418;50.070;8.436;2024-01-10T08:38:43;36.60;;;14.82;;
40729;SDS011;26418;50.070;8.436;2024-01-10T08:41:09;36.58;;;16.40;;
40729;SDS011;26418;50.070;8.436;2024-01-10T08:43:36;35.90;;;15.30;;
40729;SDS011;26418;50.070;8.436;2024-01-10T08:46:02;34.25;;;14.85;;
40729;SDS011;26418;50.070;8.436;2024-01-10T08:48:28;36.90;;;15.27;;
40729;SDS011;26418;50.070;8.436;2024-01-10T08:50:53;40.50;;;16.17;;
40729;SDS011;26418;50.070;8.436;2024-01-10T08:53:21;42.53;;;16.13;;
40729;SDS011;26418;50.070;8.436;2024-01-10T08:55:47;35.35;;;15.25;;
40729;SDS011;26418;50.070;8.436;2024-01-10T08:58:13;34.70;;;14.93;;
40729;SDS011;26418;50.070;8.436;2024-01-10T09:00:39;29.42;;;13.98;;
40729;SDS011;26418;50.070;8.436;2024-01-10T09:03:04;42.45;;;16.13;;
40729;SDS011;26418;50.070;8.436;2024-01-10T09:05:30;34.65;;;14.32;;
40729;SDS011;26418;50.070;8.436;2024-01-10T09:07:56;37.25;;;15.00;;
40729;SDS011;26418;50.070;8.436;2024-01-10T09:10:21;37.22;;;15.38;;
40729;SDS011;26418;50.070;8.436;2024-01-10T09:12:47;38.58;;;14.52;;
40729;SDS011;26418;50.070;8.436;2024-01-10T09:15:14;41.05;;;15.25;;
40729;SDS011;26418;50.070;8.436;2024-01-10T09:17:43;34.65;;;14.40;;
40729;SDS011;26418;50.070;8.436;2024-01-10T09:20:09;32.92;;;13.80;;
40729;SDS011;26418;50.070;8.436;2024-01-10T09:22:36;34.03;;;13.73;;
40729;SDS011;26418;50.070;8.436;2024-01-10T09:25:03;36.75;;;13.90;;
40729;SDS011;26418;50.070;8.436;2024-01-10T09:27:33;33.58;;;13.25;;
40729;SDS011;26418;50.070;8.436;2024-01-10T09:30:00;42.05;;;15.38;;
40729;SDS011;26418;50.070;8.436;2024-01-10T09:32:27;37.35;;;15.60;;
40729;SDS011;26418;50.070;8.436;2024-01-10T09:34:54;40.20;;;15.07;;
40729;SDS011;26418;50.070;8.436;2024-01-10T09:37:20;32.83;;;14.30;;
40729;SDS011;26418;50.070;8.436;2024-01-10T09:39:46;34.10;;;14.57;;
40729;SDS011;26418;50.070;8.436;2024-01-10T09:42:11;36.97;;;16.08;;
40729;SDS011;26418;50.070;8.436;2024-01-10T09:44:39;37.78;;;14.85;;
40729;SDS011;26418;50.070;8.436;2024-01-10T09:47:05;34.72;;;14.57;;
40729;SDS011;26418;50.070;8.436;2024-01-10T09:49:31;36.47;;;15.23;;
40729;SDS011;26418;50.070;8.436;2024-01-10T09:51:59;39.13;;;14.95;;
40729;SDS011;26418;50.070;8.436;2024-01-10T09:54:26;32.78;;;15.00;;
40729;SDS011;26418;50.070;8.436;2024-01-10T09:56:55;31.35;;;13.07;;
40729;SDS011;26418;50.070;8.436;2024-01-10T09:59:24;40.50;;;15.40;;
40729;SDS011;26418;50.070;8.436;2024-01-10T10:01:51;39.30;;;15.65;;
40729;SDS011;26418;50.070;8.436;2024-01-10T10:04:17;37.72;;;15.07;;
40729;SDS011;26418;50.070;8.436;2024-01-10T10:06:45;38.00;;;16.40;;
40729;SDS011;26418;50.070;8.436;2024-01-10T10:09:10;37.83;;;15.30;;
40729;SDS011;26418;50.070;8.436;2024-01-10T10:11:37;38.05;;;16.02;;
40729;SDS011;26418;50.070;8.436;2024-01-10T10:14:15;42.97;;;15.20;;
40729;SDS011;26418;50.070;8.436;2024-01-10T10:16:43;32.33;;;16.05;;
40729;SDS011;26418;50.070;8.436;2024-01-10T10:19:09;30.63;;;14.23;;
40729;SDS011;26418;50.070;8.436;2024-01-10T10:21:36;33.83;;;13.43;;
40729;SDS011;26418;50.070;8.436;2024-01-10T10:24:03;38.50;;;15.07;;
40729;SDS011;26418;50.070;8.436;2024-01-10T10:26:34;41.35;;;16.13;;
40729;SDS011;26418;50.070;8.436;2024-01-10T10:29:00;34.10;;;14.95;;
40729;SDS011;26418;50.070;8.436;2024-01-10T10:31:25;33.78;;;14.90;;
40729;SDS011;26418;50.070;8.436;2024-01-10T10:33:52;45.03;;;16.63;;
40729;SDS011;26418;50.070;8.436;2024-01-10T10:36:18;41.15;;;15.85;;
40729;SDS011;26418;50.070;8.436;2024-01-10T10:38:48;36.75;;;13.90;;
40729;SDS011;26418;50.070;8.436;2024-01-10T10:41:14;36.63;;;15.63;;
40729;SDS011;26418;50.070;8.436;2024-01-10T10:43:40;38.53;;;14.60;;
40729;SDS011;26418;50.070;8.436;2024-01-10T10:46:07;35.72;;;14.45;;
40729;SDS011;26418;50.070;8.436;2024-01-10T10:48:40;34.42;;;13.77;;
40729;SDS011;26418;50.070;8.436;2024-01-10T10:53:33;40.63;;;15.88;;
40729;SDS011;26418;50.070;8.436;2024-01-10T10:56:03;46.67;;;16.27;;
40729;SDS011;26418;50.070;8.436;2024-01-10T10:58:34;34.30;;;15.35;;
40729;SDS011;26418;50.070;8.436;2024-01-10T11:01:07;36.70;;;15.98;;
40729;SDS011;26418;50.070;8.436;2024-01-10T11:03:34;38.72;;;16.98;;
40729;SDS011;26418;50.070;8.436;2024-01-10T11:06:02;31.05;;;15.07;;
40729;SDS011;26418;50.070;8.436;2024-01-10T11:08:30;39.17;;;16.73;;
40729;SDS011;26418;50.070;8.436;2024-01-10T11:11:06;38.08;;;15.93;;
40729;SDS011;26418;50.070;8.436;2024-01-10T11:24:43;53.83;;;22.75;;
40729;SDS011;26418;50.070;8.436;2024-01-10T11:27:15;48.08;;;18.90;;
40729;SDS011;26418;50.070;8.436;2024-01-10T11:29:41;43.10;;;18.23;;
40729;SDS011;26418;50.070;8.436;2024-01-10T11:32:16;42.58;;;17.65;;
40729;SDS011;26418;50.070;8.436;2024-01-10T11:34:59;35.85;;;16.08;;
40729;SDS011;26418;50.070;8.436;2024-01-10T11:37:28;39.58;;;17.02;;
40729;SDS011;26418;50.070;8.436;2024-01-10T11:40:04;48.65;;;20.25;;
40729;SDS011;26418;50.070;8.436;2024-01-10T11:42:43;51.08;;;19.80;;
40729;SDS011;26418;50.070;8.436;2024-01-10T11:48:01;55.38;;;21.25;;
40729;SDS011;26418;50.070;8.436;2024-01-10T11:50:27;54.38;;;20.08;;
40729;SDS011;26418;50.070;8.436;2024-01-10T11:52:53;43.35;;;17.80;;
40729;SDS011;26418;50.070;8.436;2024-01-10T11:58:18;36.28;;;14.13;;
40729;SDS011;26418;50.070;8.436;2024-01-10T12:00:44;44.38;;;17.67;;
40729;SDS011;26418;50.070;8.436;2024-01-10T12:03:11;34.53;;;16.30;;
40729;SDS011;26418;50.070;8.436;2024-01-10T12:05:37;38.97;;;16.33;;
40729;SDS011;26418;50.070;8.436;2024-01-10T12:08:06;41.88;;;16.65;;
40729;SDS011;26418;50.070;8.436;2024-01-10T12:10:33;37.20;;;15.98;;
40729;SDS011;26418;50.070;8.436;2024-01-10T12:13:01;39.20;;;16.38;;
40729;SDS011;26418;50.070;8.436;2024-01-10T12:15:28;44.55;;;16.70;;
40729;SDS011;26418;50.070;8.436;2024-01-10T12:17:54;39.83;;;15.75;;
40729;SDS011;26418;50.070;8.436;2024-01-10T12:20:20;36.08;;;14.88;;
40729;SDS011;26418;50.070;8.436;2024-01-10T12:22:46;49.95;;;17.48;;
40729;SDS011;26418;50.070;8.436;2024-01-10T12:25:12;42.85;;;16.33;;
40729;SDS011;26418;50.070;8.436;2024-01-10T12:27:38;36.88;;;16.42;;
40729;SDS011;26418;50.070;8.436;2024-01-10T12:30:04;35.00;;;15.13;;
40729;SDS011;26418;50.070;8.436;2024-01-10T12:32:32;35.17;;;15.50;;
40729;SDS011;26418;50.070;8.436;2024-01-10T12:35:04;31.40;;;14.68;;
40729;SDS011;26418;50.070;8.436;2024-01-10T12:37:31;35.72;;;15.27;;
40729;SDS011;26418;50.070;8.436;2024-01-10T12:39:57;36.15;;;16.52;;
40729;SDS011;26418;50.070;8.436;2024-01-10T12:42:22;33.72;;;14.88;;
40729;SDS011;26418;50.070;8.436;2024-01-10T12:44:49;29.73;;;14.75;;
40729;SDS011;26418;50.070;8.436;2024-01-10T12:47:18;34.42;;;15.25;;
40729;SDS011;26418;50.070;8.436;2024-01-10T12:49:44;31.25;;;15.40;;
40729;SDS011;26418;50.070;8.436;2024-01-10T12:52:11;39.55;;;15.40;;
40729;SDS011;26418;50.070;8.436;2024-01-10T12:54:38;33.30;;;15.32;;
40729;SDS011;26418;50.070;8.436;2024-01-10T12:57:04;37.13;;;15.02;;
40729;SDS011;26418;50.070;8.436;2024-01-10T12:59:30;33.40;;;14.45;;
40729;SDS011;26418;50.070;8.436;2024-01-10T13:01:55;32.25;;;15.05;;
40729;SDS011;26418;50.070;8.436;2024-01-10T13:04:22;33.20;;;14.73;;
40729;SDS011;26418;50.070;8.436;2024-01-10T13:06:48;31.17;;;13.50;;
40729;SDS011;26418;50.070;8.436;2024-01-10T13:09:13;27.27;;;13.10;;
40729;SDS011;26418;50.070;8.436;2024-01-10T13:11:39;29.30;;;13.43;;
40729;SDS011;26418;50.070;8.436;2024-01-10T13:14:04;34.53;;;13.77;;
40729;SDS011;26418;50.070;8.436;2024-01-10T13:16:30;26.88;;;11.88;;
40729;SDS011;26418;50.070;8.436;2024-01-10T13:18:56;29.02;;;12.73;;
40729;SDS011;26418;50.070;8.436;2024-01-10T13:21:22;24.98;;;11.73;;
40729;SDS011;26418;50.070;8.436;2024-01-10T13:23:48;30.08;;;14.27;;
40729;SDS011;26418;50.070;8.436;2024-01-10T13:26:13;35.20;;;14.18;;
40729;SDS011;26418;50.070;8.436;2024-01-10T13:28:40;30.35;;;13.50;;
40729;SDS011;26418;50.070;8.436;2024-01-10T13:31:05;29.73;;;12.60;;
40729;SDS011;26418;50.070;8.436;2024-01-10T13:33:31;32.45;;;13.68;;
40729;SDS011;26418;50.070;8.436;2024-01-10T13:35:57;30.33;;;13.63;;
40729;SDS011;26418;50.070;8.436;2024-01-10T13:38:22;27.67;;;13.27;;
40729;SDS011;26418;50.070;8.436;2024-01-10T13:40:49;30.27;;;13.13;;
40729;SDS011;26418;50.070;8.436;2024-01-10T13:43:15;32.08;;;13.50;;
40729;SDS011;26418;50.070;8.436;2024-01-10T13:45:41;26.40;;;12.45;;
40729;SDS011;26418;50.070;8.436;2024-01-10T13:48:06;28.55;;;12.70;;
40729;SDS011;26418;50.070;8.436;2024-01-10T13:50:32;32.95;;;14.95;;
40729;SDS011;26418;50.070;8.436;2024-01-10T13:52:58;30.83;;;14.43;;
40729;SDS011;26418;50.070;8.436;2024-01-10T13:55:24;32.53;;;14.80;;
40729;SDS011;26418;50.070;8.436;2024-01-10T13:57:50;34.33;;;13.65;;
40729;SDS011;26418;50.070;8.436;2024-01-10T14:00:18;29.85;;;13.63;;
40729;SDS011;26418;50.070;8.436;2024-01-10T14:02:45;31.02;;;13.10;;
40729;SDS011;26418;50.070;8.436;2024-01-10T14:05:10;28.10;;;13.15;;
40729;SDS011;26418;50.070;8.436;2024-01-10T14:07:36;33.85;;;12.82;;
40729;SDS011;26418;50.070;8.436;2024-01-10T14:10:02;33.03;;;14.60;;
40729;SDS011;26418;50.070;8.436;2024-01-10T14:12:29;31.50;;;13.52;;
40729;SDS011;26418;50.070;8.436;2024-01-10T14:14:55;32.47;;;14.20;;
40729;SDS011;26418;50.070;8.436;2024-01-10T14:17:21;28.45;;;13.85;;
40729;SDS011;26418;50.070;8.436;2024-01-10T14:19:47;31.60;;;13.40;;
40729;SDS011;26418;50.070;8.436;2024-01-10T14:22:15;29.42;;;13.60;;
40729;SDS011;26418;50.070;8.436;2024-01-10T14:24:42;29.75;;;12.98;;
40729;SDS011;26418;50.070;8.436;2024-01-10T14:27:08;32.45;;;12.82;;
40729;SDS011;26418;50.070;8.436;2024-01-10T14:29:34;27.17;;;12.43;;
40729;SDS011;26418;50.070;8.436;2024-01-10T14:31:59;27.30;;;12.75;;
40729;SDS011;26418;50.070;8.436;2024-01-10T14:34:25;33.45;;;14.18;;